sensor_id;sensor_type;location;lat;lon;timestamp;temperature;humidity
23289;DHT22;11813;50.834;4.280;2024-03-07T00:02:13;7.70;99.90
23289;DHT22;11813;50.834;4.280;2024-03-07T00:04:38;7.60;99.90
23289;DHT22;11813;50.834;4.280;2024-03-07T00:07:04;7.60;99.90
23289;DHT22;11813;50.834;4.280;2024-03-07T00:09:34;7.50;99.90
23289;DHT22;11813;50.834;4.280;2024-03-07T00:12:00;7.50;99.90
23289;DHT22;11813;50.834;4.280;2024-03-07T00:14:26;7.50;99.90
23289;DHT22;11813;50.834;4.280;2024-03-07T00:16:55;7.50;99.90
23289;DHT22;11813;50.834;4.280;2024-03-07T00:19:21;7.50;99.90
23289;DHT22;11813;50.834;4.280;2024-03-07T00:21:47;7.40;99.90
23289;DHT22;11813;50.834;4.280;2024-03-07T00:24:14;7.40;99.90
23289;DHT22;11813;50.834;4.280;2024-03-07T00:26:40;7.40;99.90
23289;DHT22;11813;50.834;4.280;2024-03-07T00:29:06;7.30;99.90
23289;DHT22;11813;50.834;4.280;2024-03-07T00:31:32;7.30;99.90
23289;DHT22;11813;50.834;4.280;2024-03-07T00:33:58;7.30;99.90
23289;DHT22;11813;50.834;4.280;2024-03-07T00:36:24;7.30;99.90
23289;DHT22;11813;50.834;4.280;2024-03-07T00:38:50;7.30;99.90
23289;DHT22;11813;50.834;4.280;2024-03-07T00:41:15;7.20;99.90
23289;DHT22;11813;50.834;4.280;2024-03-07T00:43:42;7.20;99.90
23289;DHT22;11813;50.834;4.280;2024-03-07T00:46:08;7.20;99.90
23289;DHT22;11813;50.834;4.280;2024-03-07T00:48:33;7.20;99.90
23289;DHT22;11813;50.834;4.280;2024-03-07T00:50:59;7.20;99.90
23289;DHT22;11813;50.834;4.280;2024-03-07T00:53:25;7.20;99.90
23289;DHT22;11813;50.834;4.280;2024-03-07T00:55:50;7.10;99.90
23289;DHT22;11813;50.834;4.280;2024-03-07T00:58:16;7.10;99.90
23289;DHT22;11813;50.834;4.280;2024-03-07T01:00:42;7.10;99.90
23289;DHT22;11813;50.834;4.280;2024-03-07T01:03:09;7.10;99.90
23289;DHT22;11813;50.834;4.280;2024-03-07T01:05:37;7.10;99.90
23289;DHT22;11813;50.834;4.280;2024-03-07T01:08:04;7.20;99.90
23289;DHT22;11813;50.834;4.280;2024-03-07T01:10:30;7.10;99.90
23289;DHT22;11813;50.834;4.280;2024-03-07T01:12:57;7.20;99.90
23289;DHT22;11813;50.834;4.280;2024-03-07T01:15:26;7.20;99.90
23289;DHT22;11813;50.834;4.280;2024-03-07T01:17:52;7.30;99.90
23289;DHT22;11813;50.834;4.280;2024-03-07T01:20:18;7.30;99.90
23289;DHT22;11813;50.834;4.280;2024-03-07T01:22:44;7.40;99.90
23289;DHT22;11813;50.834;4.280;2024-03-07T01:25:09;7.40;99.90
23289;DHT22;11813;50.834;4.280;2024-03-07T01:27:35;7.40;99.90
23289;DHT22;11813;50.834;4.280;2024-03-07T01:30:01;7.30;99.90
23289;DHT22;11813;50.834;4.280;2024-03-07T01:32:27;7.30;99.90
23289;DHT22;11813;50.834;4.280;2024-03-07T01:34:53;7.30;99.90
23289;DHT22;11813;50.834;4.280;2024-03-07T01:37:20;7.40;99.90
23289;DHT22;11813;50.834;4.280;2024-03-07T01:39:45;7.40;99.90
23289;DHT22;11813;50.834;4.280;2024-03-07T01:42:12;7.40;99.90
23289;DHT22;11813;50.834;4.280;2024-03-07T01:44:37;7.30;99.90
23289;DHT22;11813;50.834;4.280;2024-03-07T01:47:05;7.20;99.90
23289;DHT22;11813;50.834;4.280;2024-03-07T01:49:31;7.20;99.90
23289;DHT22;11813;50.834;4.280;2024-03-07T01:51:58;7.30;99.90
23289;DHT22;11813;50.834;4.280;2024-03-07T01:54:23;7.30;99.90
23289;DHT22;11813;50.834;4.280;2024-03-07T01:56:50;7.20;99.90
23289;DHT22;11813;50.834;4.280;2024-03-07T01:59:17;7.30;99.90
23289;DHT22;11813;50.834;4.280;2024-03-07T02:01:46;7.30;99.90
23289;DHT22;11813;50.834;4.280;2024-03-07T02:04:12;7.30;99.90
23289;DHT22;11813;50.834;4.280;2024-03-07T02:06:40;7.40;99.90
23289;DHT22;11813;50.834;4.280;2024-03-07T02:09:06;7.30;99.90
23289;DHT22;11813;50.834;4.280;2024-03-07T02:11:32;7.40;99.90
23289;DHT22;11813;50.834;4.280;2024-03-07T02:13:58;7.40;99.90
23289;DHT22;11813;50.834;4.280;2024-03-07T02:16:24;7.30;99.90
23289;DHT22;11813;50.834;4.280;2024-03-07T02:18:50;7.30;99.90
23289;DHT22;11813;50.834;4.280;2024-03-07T02:21:16;7.30;99.90
23289;DHT22;11813;50.834;4.280;2024-03-07T02:23:42;7.30;99.90
23289;DHT22;11813;50.834;4.280;2024-03-07T02:26:07;7.30;99.90
23289;DHT22;11813;50.834;4.280;2024-03-07T02:28:36;7.30;99.90
23289;DHT22;11813;50.834;4.280;2024-03-07T02:31:02;7.20;99.90
23289;DHT22;11813;50.834;4.280;2024-03-07T02:33:27;7.20;99.90
23289;DHT22;11813;50.834;4.280;2024-03-07T02:35:53;7.20;99.90
23289;DHT22;11813;50.834;4.280;2024-03-07T02:38:19;7.20;99.90
23289;DHT22;11813;50.834;4.280;2024-03-07T02:40:45;7.30;99.90
23289;DHT22;11813;50.834;4.280;2024-03-07T02:43:12;7.20;99.90
23289;DHT22;11813;50.834;4.280;2024-03-07T02:45:37;7.10;99.90
23289;DHT22;11813;50.834;4.280;2024-03-07T02:48:04;7.10;99.90
23289;DHT22;11813;50.834;4.280;2024-03-07T02:50:35;7.10;99.90
23289;DHT22;11813;50.834;4.280;2024-03-07T02:53:03;7.00;99.90
23289;DHT22;11813;50.834;4.280;2024-03-07T02:55:29;7.00;99.90
23289;DHT22;11813;50.834;4.280;2024-03-07T02:57:54;7.00;99.90
23289;DHT22;11813;50.834;4.280;2024-03-07T03:00:23;7.00;99.90
23289;DHT22;11813;50.834;4.280;2024-03-07T03:02:52;7.00;99.90
23289;DHT22;11813;50.834;4.280;2024-03-07T03:05:18;7.10;99.90
23289;DHT22;11813;50.834;4.280;2024-03-07T03:07:44;7.20;99.90
23289;DHT22;11813;50.834;4.280;2024-03-07T03:10:17;7.10;99.90
23289;DHT22;11813;50.834;4.280;2024-03-07T03:12:42;7.10;99.90
23289;DHT22;11813;50.834;4.280;2024-03-07T03:15:09;7.10;99.90
23289;DHT22;11813;50.834;4.280;2024-03-07T03:17:37;7.10;99.90
23289;DHT22;11813;50.834;4.280;2024-03-07T03:20:03;7.10;99.90
23289;DHT22;11813;50.834;4.280;2024-03-07T03:22:40;7.10;99.90
23289;DHT22;11813;50.834;4.280;2024-03-07T03:25:06;7.10;99.90
23289;DHT22;11813;50.834;4.280;2024-03-07T03:27:32;7.10;99.90
23289;DHT22;11813;50.834;4.280;2024-03-07T03:29:58;7.00;99.90
23289;DHT22;11813;50.834;4.280;2024-03-07T03:32:25;7.00;99.90
23289;DHT22;11813;50.834;4.280;2024-03-07T03:34:51;6.90;99.90
23289;DHT22;11813;50.834;4.280;2024-03-07T03:37:17;7.00;99.90
23289;DHT22;11813;50.834;4.280;2024-03-07T03:39:43;6.90;99.90
23289;DHT22;11813;50.834;4.280;2024-03-07T03:42:09;7.00;99.90
23289;DHT22;11813;50.834;4.280;2024-03-07T03:44:35;6.90;99.90
23289;DHT22;11813;50.834;4.280;2024-03-07T03:47:00;7.00;99.90
23289;DHT22;11813;50.834;4.280;2024-03-07T03:49:27;6.80;99.90
23289;DHT22;11813;50.834;4.280;2024-03-07T03:51:53;6.80;99.90
23289;DHT22;11813;50.834;4.280;2024-03-07T03:54:18;6.90;99.90
23289;DHT22;11813;50.834;4.280;2024-03-07T03:56:44;6.90;99.90
23289;DHT22;11813;50.834;4.280;2024-03-07T03:59:09;6.90;99.90
23289;DHT22;11813;50.834;4.280;2024-03-07T04:01:35;6.90;99.90
23289;DHT22;11813;50.834;4.280;2024-03-07T04:04:01;6.80;99.90
23289;DHT22;11813;50.834;4.280;2024-03-07T04:06:26;6.70;99.90
23289;DHT22;11813;50.834;4.280;2024-03-07T04:08:52;6.60;99.90
23289;DHT22;11813;50.834;4.280;2024-03-07T04:11:20;6.70;99.90
23289;DHT22;11813;50.834;4.280;2024-03-07T04:13:46;6.80;99.90
23289;DHT22;11813;50.834;4.280;2024-03-07T04:16:12;6.80;99.90
23289;DHT22;11813;50.834;4.280;2024-03-07T04:18:37;6.70;99.90
23289;DHT22;11813;50.834;4.280;2024-03-07T04:21:03;6.70;99.90
23289;DHT22;11813;50.834;4.280;2024-03-07T04:23:29;6.80;99.90
23289;DHT22;11813;50.834;4.280;2024-03-07T04:25:54;6.80;99.90
23289;DHT22;11813;50.834;4.280;2024-03-07T04:28:21;6.80;99.90
23289;DHT22;11813;50.834;4.280;2024-03-07T04:30:47;6.70;99.90
23289;DHT22;11813;50.834;4.280;2024-03-07T04:33:14;6.70;99.90
23289;DHT22;11813;50.834;4.280;2024-03-07T04:35:40;6.70;99.90
23289;DHT22;11813;50.834;4.280;2024-03-07T04:38:06;6.70;99.90
23289;DHT22;11813;50.834;4.280;2024-03-07T04:40:37;6.70;99.90
23289;DHT22;11813;50.834;4.280;2024-03-07T04:43:03;6.70;99.90
23289;DHT22;11813;50.834;4.280;2024-03-07T04:45:28;6.60;99.90
23289;DHT22;11813;50.834;4.280;2024-03-07T04:47:54;6.60;99.90
23289;DHT22;11813;50.834;4.280;2024-03-07T04:50:20;6.50;99.90
23289;DHT22;11813;50.834;4.280;2024-03-07T04:52:45;6.50;99.90
23289;DHT22;11813;50.834;4.280;2024-03-07T04:55:11;6.50;99.90
23289;DHT22;11813;50.834;4.280;2024-03-07T04:57:38;6.60;99.90
23289;DHT22;11813;50.834;4.280;2024-03-07T05:00:10;6.50;99.90
23289;DHT22;11813;50.834;4.280;2024-03-07T05:02:40;6.60;99.90
23289;DHT22;11813;50.834;4.280;2024-03-07T05:05:06;6.50;99.90
23289;DHT22;11813;50.834;4.280;2024-03-07T05:07:31;6.60;99.90
23289;DHT22;11813;50.834;4.280;2024-03-07T05:09:57;6.60;99.90
23289;DHT22;11813;50.834;4.280;2024-03-07T05:12:23;6.50;99.90
23289;DHT22;11813;50.834;4.280;2024-03-07T05:14:48;6.60;99.90
23289;DHT22;11813;50.834;4.280;2024-03-07T05:17:14;6.60;99.90
23289;DHT22;11813;50.834;4.280;2024-03-07T05:19:39;6.60;99.90
23289;DHT22;11813;50.834;4.280;2024-03-07T05:22:07;6.60;99.90
23289;DHT22;11813;50.834;4.280;2024-03-07T05:24:33;6.50;99.90
23289;DHT22;11813;50.834;4.280;2024-03-07T05:26:59;6.50;99.90
23289;DHT22;11813;50.834;4.280;2024-03-07T05:29:25;6.40;99.90
23289;DHT22;11813;50.834;4.280;2024-03-07T05:31:51;6.40;99.90
23289;DHT22;11813;50.834;4.280;2024-03-07T05:34:16;6.30;99.90
23289;DHT22;11813;50.834;4.280;2024-03-07T05:36:45;6.20;99.90
23289;DHT22;11813;50.834;4.280;2024-03-07T05:39:15;6.30;99.90
23289;DHT22;11813;50.834;4.280;2024-03-07T05:41:42;6.40;99.90
23289;DHT22;11813;50.834;4.280;2024-03-07T05:44:08;6.40;99.90
23289;DHT22;11813;50.834;4.280;2024-03-07T05:46:43;6.50;99.90
23289;DHT22;11813;50.834;4.280;2024-03-07T05:49:14;6.50;99.90
23289;DHT22;11813;50.834;4.280;2024-03-07T05:51:40;6.50;99.90
23289;DHT22;11813;50.834;4.280;2024-03-07T05:54:07;6.50;99.90
23289;DHT22;11813;50.834;4.280;2024-03-07T05:56:34;6.40;99.90
23289;DHT22;11813;50.834;4.280;2024-03-07T05:59:02;6.40;99.90
23289;DHT22;11813;50.834;4.280;2024-03-07T06:01:30;6.40;99.90
23289;DHT22;11813;50.834;4.280;2024-03-07T06:04:00;6.60;99.90
23289;DHT22;11813;50.834;4.280;2024-03-07T06:06:26;6.60;99.90
23289;DHT22;11813;50.834;4.280;2024-03-07T06:08:52;6.50;99.90
23289;DHT22;11813;50.834;4.280;2024-03-07T06:11:18;6.50;99.90
23289;DHT22;11813;50.834;4.280;2024-03-07T06:13:47;6.50;99.90
23289;DHT22;11813;50.834;4.280;2024-03-07T06:16:12;6.60;99.90
23289;DHT22;11813;50.834;4.280;2024-03-07T06:18:40;6.60;99.90
23289;DHT22;11813;50.834;4.280;2024-03-07T06:21:05;6.70;99.90
23289;DHT22;11813;50.834;4.280;2024-03-07T06:23:31;6.60;99.90
23289;DHT22;11813;50.834;4.280;2024-03-07T06:25:58;6.60;99.90
23289;DHT22;11813;50.834;4.280;2024-03-07T06:28:25;6.60;99.90
23289;DHT22;11813;50.834;4.280;2024-03-07T06:30:50;6.70;99.90
23289;DHT22;11813;50.834;4.280;2024-03-07T06:33:16;6.60;99.90
23289;DHT22;11813;50.834;4.280;2024-03-07T06:35:42;6.60;99.90
23289;DHT22;11813;50.834;4.280;2024-03-07T06:38:08;6.60;99.90
23289;DHT22;11813;50.834;4.280;2024-03-07T06:40:38;6.50;99.90
23289;DHT22;11813;50.834;4.280;2024-03-07T06:43:10;6.50;99.90
23289;DHT22;11813;50.834;4.280;2024-03-07T06:45:37;6.50;99.90
23289;DHT22;11813;50.834;4.280;2024-03-07T06:48:06;6.50;99.90
23289;DHT22;11813;50.834;4.280;2024-03-07T06:50:36;6.70;99.90
23289;DHT22;11813;50.834;4.280;2024-03-07T06:53:06;6.70;99.90
23289;DHT22;11813;50.834;4.280;2024-03-07T06:55:34;6.80;99.90
23289;DHT22;11813;50.834;4.280;2024-03-07T06:58:00;6.80;99.90
23289;DHT22;11813;50.834;4.280;2024-03-07T07:00:27;6.70;99.90
23289;DHT22;11813;50.834;4.280;2024-03-07T07:02:53;6.70;99.90
23289;DHT22;11813;50.834;4.280;2024-03-07T07:05:20;6.90;99.90
23289;DHT22;11813;50.834;4.280;2024-03-07T07:07:49;6.80;99.90
23289;DHT22;11813;50.834;4.280;2024-03-07T07:10:15;6.90;99.90
23289;DHT22;11813;50.834;4.280;2024-03-07T07:12:47;6.90;99.90
23289;DHT22;11813;50.834;4.280;2024-03-07T07:15:15;6.90;99.90
23289;DHT22;11813;50.834;4.280;2024-03-07T07:17:43;7.00;99.90
23289;DHT22;11813;50.834;4.280;2024-03-07T07:20:11;7.10;99.90
23289;DHT22;11813;50.834;4.280;2024-03-07T07:22:39;7.00;99.90
23289;DHT22;11813;50.834;4.280;2024-03-07T07:25:05;7.00;99.90
23289;DHT22;11813;50.834;4.280;2024-03-07T07:27:32;7.00;99.90
23289;DHT22;11813;50.834;4.280;2024-03-07T07:29:58;7.10;99.90
23289;DHT22;11813;50.834;4.280;2024-03-07T07:32:24;7.20;99.90
23289;DHT22;11813;50.834;4.280;2024-03-07T07:34:50;7.20;99.90
23289;DHT22;11813;50.834;4.280;2024-03-07T07:37:15;7.20;99.90
23289;DHT22;11813;50.834;4.280;2024-03-07T07:39:41;7.10;99.90
23289;DHT22;11813;50.834;4.280;2024-03-07T07:42:06;6.90;99.90
23289;DHT22;11813;50.834;4.280;2024-03-07T07:44:35;6.90;99.90
23289;DHT22;11813;50.834;4.280;2024-03-07T07:47:00;6.80;99.90
23289;DHT22;11813;50.834;4.280;2024-03-07T07:49:26;6.80;99.90
23289;DHT22;11813;50.834;4.280;2024-03-07T07:51:52;7.00;99.90
23289;DHT22;11813;50.834;4.280;2024-03-07T07:54:19;7.00;99.90
23289;DHT22;11813;50.834;4.280;2024-03-07T07:56:46;7.20;99.90
23289;DHT22;11813;50.834;4.280;2024-03-07T07:59:13;7.20;99.90
23289;DHT22;11813;50.834;4.280;2024-03-07T08:01:39;7.20;99.90
23289;DHT22;11813;50.834;4.280;2024-03-07T08:04:05;7.10;99.90
23289;DHT22;11813;50.834;4.280;2024-03-07T08:06:31;7.20;99.90
23289;DHT22;11813;50.834;4.280;2024-03-07T08:08:56;7.20;99.90
23289;DHT22;11813;50.834;4.280;2024-03-07T08:11:22;7.10;99.90
23289;DHT22;11813;50.834;4.280;2024-03-07T08:13:47;7.10;99.90
23289;DHT22;11813;50.834;4.280;2024-03-07T08:16:16;7.20;99.90
23289;DHT22;11813;50.834;4.280;2024-03-07T08:18:41;7.10;99.90
23289;DHT22;11813;50.834;4.280;2024-03-07T08:21:07;7.30;99.90
23289;DHT22;11813;50.834;4.280;2024-03-07T08:23:36;7.30;99.90
23289;DHT22;11813;50.834;4.280;2024-03-07T08:26:02;7.20;99.90
23289;DHT22;11813;50.834;4.280;2024-03-07T08:28:27;7.20;99.90
23289;DHT22;11813;50.834;4.280;2024-03-07T08:30:53;7.10;99.90
23289;DHT22;11813;50.834;4.280;2024-03-07T08:33:20;7.30;99.90
23289;DHT22;11813;50.834;4.280;2024-03-07T08:35:47;7.40;99.90
23289;DHT22;11813;50.834;4.280;2024-03-07T08:38:13;7.60;99.90
23289;DHT22;11813;50.834;4.280;2024-03-07T08:40:38;7.70;99.90
23289;DHT22;11813;50.834;4.280;2024-03-07T08:43:04;7.80;99.90
23289;DHT22;11813;50.834;4.280;2024-03-07T08:45:32;7.90;99.90
23289;DHT22;11813;50.834;4.280;2024-03-07T08:48:00;8.00;99.90
23289;DHT22;11813;50.834;4.280;2024-03-07T08:50:27;8.10;99.90
23289;DHT22;11813;50.834;4.280;2024-03-07T08:52:53;8.30;99.90
23289;DHT22;11813;50.834;4.280;2024-03-07T08:55:22;8.40;99.90
23289;DHT22;11813;50.834;4.280;2024-03-07T08:57:48;8.20;99.90
23289;DHT22;11813;50.834;4.280;2024-03-07T09:00:15;8.20;99.90
23289;DHT22;11813;50.834;4.280;2024-03-07T09:02:53;8.10;99.90
23289;DHT22;11813;50.834;4.280;2024-03-07T09:05:20;8.20;99.90
23289;DHT22;11813;50.834;4.280;2024-03-07T09:07:48;8.20;99.90
23289;DHT22;11813;50.834;4.280;2024-03-07T09:10:13;8.30;99.90
23289;DHT22;11813;50.834;4.280;2024-03-07T09:12:46;8.40;99.90
23289;DHT22;11813;50.834;4.280;2024-03-07T09:15:15;8.60;99.90
23289;DHT22;11813;50.834;4.280;2024-03-07T09:17:42;8.80;99.90
23289;DHT22;11813;50.834;4.280;2024-03-07T09:20:09;8.90;99.90
23289;DHT22;11813;50.834;4.280;2024-03-07T09:22:40;9.00;99.90
23289;DHT22;11813;50.834;4.280;2024-03-07T09:25:06;9.20;99.90
23289;DHT22;11813;50.834;4.280;2024-03-07T09:27:32;9.10;99.90
23289;DHT22;11813;50.834;4.280;2024-03-07T09:29:57;9.00;99.90
23289;DHT22;11813;50.834;4.280;2024-03-07T09:32:23;9.20;99.90
23289;DHT22;11813;50.834;4.280;2024-03-07T09:34:49;9.20;99.90
23289;DHT22;11813;50.834;4.280;2024-03-07T09:37:15;9.30;99.90
23289;DHT22;11813;50.834;4.280;2024-03-07T09:39:40;9.20;99.90
23289;DHT22;11813;50.834;4.280;2024-03-07T09:42:07;9.30;99.90
23289;DHT22;11813;50.834;4.280;2024-03-07T09:44:40;9.50;99.90
23289;DHT22;11813;50.834;4.280;2024-03-07T09:47:07;9.70;99.90
23289;DHT22;11813;50.834;4.280;2024-03-07T09:49:33;9.70;99.90
23289;DHT22;11813;50.834;4.280;2024-03-07T09:52:04;10.00;99.90
23289;DHT22;11813;50.834;4.280;2024-03-07T09:54:34;10.00;99.90
23289;DHT22;11813;50.834;4.280;2024-03-07T09:57:01;10.20;99.90
23289;DHT22;11813;50.834;4.280;2024-03-07T09:59:28;10.50;99.90
23289;DHT22;11813;50.834;4.280;2024-03-07T10:01:57;10.80;99.90
23289;DHT22;11813;50.834;4.280;2024-03-07T10:04:29;11.20;99.90
23289;DHT22;11813;50.834;4.280;2024-03-07T10:06:57;11.40;99.90
23289;DHT22;11813;50.834;4.280;2024-03-07T10:09:24;11.40;99.90
23289;DHT22;11813;50.834;4.280;2024-03-07T10:11:59;11.30;99.90
23289;DHT22;11813;50.834;4.280;2024-03-07T10:14:25;11.40;99.90
23289;DHT22;11813;50.834;4.280;2024-03-07T10:16:53;11.60;99.90
23289;DHT22;11813;50.834;4.280;2024-03-07T10:19:22;12.00;99.90
23289;DHT22;11813;50.834;4.280;2024-03-07T10:21:47;12.20;99.90
23289;DHT22;11813;50.834;4.280;2024-03-07T10:24:13;12.20;99.90
23289;DHT22;11813;50.834;4.280;2024-03-07T10:26:40;12.10;99.90
23289;DHT22;11813;50.834;4.280;2024-03-07T10:29:09;12.20;99.90
23289;DHT22;11813;50.834;4.280;2024-03-07T10:31:35;12.40;99.90
23289;DHT22;11813;50.834;4.280;2024-03-07T10:34:03;12.40;99.90
23289;DHT22;11813;50.834;4.280;2024-03-07T10:36:30;12.50;99.90
23289;DHT22;11813;50.834;4.280;2024-03-07T10:38:58;12.80;99.90
23289;DHT22;11813;50.834;4.280;2024-03-07T10:41:48;13.00;99.90
23289;DHT22;11813;50.834;4.280;2024-03-07T10:44:24;12.80;99.90
23289;DHT22;11813;50.834;4.280;2024-03-07T10:46:55;13.00;99.90
23289;DHT22;11813;50.834;4.280;2024-03-07T10:49:25;13.20;99.90
23289;DHT22;11813;50.834;4.280;2024-03-07T10:52:17;13.10;99.90
23289;DHT22;11813;50.834;4.280;2024-03-07T10:55:00;13.20;99.90
23289;DHT22;11813;50.834;4.280;2024-03-07T11:00:04;14.00;99.90
23289;DHT22;11813;50.834;4.280;2024-03-07T11:02:53;14.20;99.90
23289;DHT22;11813;50.834;4.280;2024-03-07T11:05:20;14.30;99.90
23289;DHT22;11813;50.834;4.280;2024-03-07T11:07:50;14.40;99.90
23289;DHT22;11813;50.834;4.280;2024-03-07T11:10:16;14.70;99.90
23289;DHT22;11813;50.834;4.280;2024-03-07T11:12:44;15.00;99.90
23289;DHT22;11813;50.834;4.280;2024-03-07T11:15:12;15.20;99.90
23289;DHT22;11813;50.834;4.280;2024-03-07T11:17:47;15.40;99.90
23289;DHT22;11813;50.834;4.280;2024-03-07T11:20:34;15.50;99.90
23289;DHT22;11813;50.834;4.280;2024-03-07T11:22:59;15.50;99.90
23289;DHT22;11813;50.834;4.280;2024-03-07T11:25:27;15.30;99.90
23289;DHT22;11813;50.834;4.280;2024-03-07T11:27:56;15.40;99.90
23289;DHT22;11813;50.834;4.280;2024-03-07T11:30:22;15.70;99.90
23289;DHT22;11813;50.834;4.280;2024-03-07T11:32:51;16.10;99.90
23289;DHT22;11813;50.834;4.280;2024-03-07T11:35:30;16.20;99.90
23289;DHT22;11813;50.834;4.280;2024-03-07T11:37:58;16.20;99.90
23289;DHT22;11813;50.834;4.280;2024-03-07T11:42:54;16.50;99.90
23289;DHT22;11813;50.834;4.280;2024-03-07T11:45:22;16.20;99.90
23289;DHT22;11813;50.834;4.280;2024-03-07T11:47:52;15.90;99.90
23289;DHT22;11813;50.834;4.280;2024-03-07T11:50:25;15.90;99.90
23289;DHT22;11813;50.834;4.280;2024-03-07T11:52:53;15.40;99.90
23289;DHT22;11813;50.834;4.280;2024-03-07T11:55:23;15.20;99.90
23289;DHT22;11813;50.834;4.280;2024-03-07T11:57:49;15.00;99.90
23289;DHT22;11813;50.834;4.280;2024-03-07T12:00:18;14.70;99.90
23289;DHT22;11813;50.834;4.280;2024-03-07T12:02:44;14.80;99.90
23289;DHT22;11813;50.834;4.280;2024-03-07T12:05:10;15.00;99.90
23289;DHT22;11813;50.834;4.280;2024-03-07T12:07:36;15.20;99.90
23289;DHT22;11813;50.834;4.280;2024-03-07T12:10:02;15.20;99.90
23289;DHT22;11813;50.834;4.280;2024-03-07T12:12:32;15.20;99.90
23289;DHT22;11813;50.834;4.280;2024-03-07T12:14:59;15.30;99.90
23289;DHT22;11813;50.834;4.280;2024-03-07T12:17:25;15.90;99.90
23289;DHT22;11813;50.834;4.280;2024-03-07T12:19:51;16.40;99.90
23289;DHT22;11813;50.834;4.280;2024-03-07T12:22:19;16.80;99.90
23289;DHT22;11813;50.834;4.280;2024-03-07T12:24:59;16.90;99.90
23289;DHT22;11813;50.834;4.280;2024-03-07T12:27:28;17.20;99.90
23289;DHT22;11813;50.834;4.280;2024-03-07T12:29:54;17.60;99.90
23289;DHT22;11813;50.834;4.280;2024-03-07T12:32:20;17.80;99.90
23289;DHT22;11813;50.834;4.280;2024-03-07T12:34:46;18.10;99.90
23289;DHT22;11813;50.834;4.280;2024-03-07T12:37:13;18.50;99.90
23289;DHT22;11813;50.834;4.280;2024-03-07T12:39:45;18.60;99.90
23289;DHT22;11813;50.834;4.280;2024-03-07T12:42:18;18.50;99.90
23289;DHT22;11813;50.834;4.280;2024-03-07T12:44:45;18.00;99.90
23289;DHT22;11813;50.834;4.280;2024-03-07T12:47:15;17.20;99.90
23289;DHT22;11813;50.834;4.280;2024-03-07T12:49:44;16.60;99.90
23289;DHT22;11813;50.834;4.280;2024-03-07T12:52:11;16.20;99.90
23289;DHT22;11813;50.834;4.280;2024-03-07T12:54:41;15.60;99.90
23289;DHT22;11813;50.834;4.280;2024-03-07T12:57:12;15.40;99.90
23289;DHT22;11813;50.834;4.280;2024-03-07T12:59:38;15.20;99.90
23289;DHT22;11813;50.834;4.280;2024-03-07T13:02:07;15.20;99.90
23289;DHT22;11813;50.834;4.280;2024-03-07T13:04:34;15.20;99.90
23289;DHT22;11813;50.834;4.280;2024-03-07T13:07:00;15.20;99.90
23289;DHT22;11813;50.834;4.280;2024-03-07T13:09:27;15.30;99.90
23289;DHT22;11813;50.834;4.280;2024-03-07T13:11:54;15.20;99.90
23289;DHT22;11813;50.834;4.280;2024-03-07T13:14:19;15.20;99.90
23289;DHT22;11813;50.834;4.280;2024-03-07T13:16:45;15.20;99.90
23289;DHT22;11813;50.834;4.280;2024-03-07T13:19:11;15.50;99.90
23289;DHT22;11813;50.834;4.280;2024-03-07T13:21:38;15.90;99.90
23289;DHT22;11813;50.834;4.280;2024-03-07T13:24:05;16.50;99.90
23289;DHT22;11813;50.834;4.280;2024-03-07T13:26:31;16.80;99.90
23289;DHT22;11813;50.834;4.280;2024-03-07T13:28:57;17.30;99.90
23289;DHT22;11813;50.834;4.280;2024-03-07T13:31:27;17.90;99.90
23289;DHT22;11813;50.834;4.280;2024-03-07T13:33:54;17.70;99.90
23289;DHT22;11813;50.834;4.280;2024-03-07T13:36:20;17.40;99.90
23289;DHT22;11813;50.834;4.280;2024-03-07T13:38:53;17.10;99.90
23289;DHT22;11813;50.834;4.280;2024-03-07T13:41:21;17.00;99.90
23289;DHT22;11813;50.834;4.280;2024-03-07T13:43:48;17.10;99.90
23289;DHT22;11813;50.834;4.280;2024-03-07T13:46:14;17.10;99.90
23289;DHT22;11813;50.834;4.280;2024-03-07T13:48:43;16.60;99.90
23289;DHT22;11813;50.834;4.280;2024-03-07T13:51:09;16.20;99.90
23289;DHT22;11813;50.834;4.280;2024-03-07T13:53:35;16.00;99.90
23289;DHT22;11813;50.834;4.280;2024-03-07T14:01:37;16.20;99.90
23289;DHT22;11813;50.834;4.280;2024-03-07T14:19:27;16.70;99.90
23289;DHT22;11813;50.834;4.280;2024-03-07T14:22:02;16.80;99.90
23289;DHT22;11813;50.834;4.280;2024-03-07T14:30:51;16.60;99.90
23289;DHT22;11813;50.834;4.280;2024-03-07T14:33:22;16.80;99.90
23289;DHT22;11813;50.834;4.280;2024-03-07T14:36:11;16.70;99.90
23289;DHT22;11813;50.834;4.280;2024-03-07T14:38:52;16.90;99.90
23289;DHT22;11813;50.834;4.280;2024-03-07T14:41:23;16.90;99.90
23289;DHT22;11813;50.834;4.280;2024-03-07T14:43:51;17.00;99.90
23289;DHT22;11813;50.834;4.280;2024-03-07T14:46:17;17.20;99.90
23289;DHT22;11813;50.834;4.280;2024-03-07T14:48:44;17.70;99.90
23289;DHT22;11813;50.834;4.280;2024-03-07T14:51:11;17.90;99.90
23289;DHT22;11813;50.834;4.280;2024-03-07T14:53:41;18.00;99.90
23289;DHT22;11813;50.834;4.280;2024-03-07T14:56:08;18.30;99.90
23289;DHT22;11813;50.834;4.280;2024-03-07T14:58:35;18.50;99.90
23289;DHT22;11813;50.834;4.280;2024-03-07T15:01:01;18.80;99.90
23289;DHT22;11813;50.834;4.280;2024-03-07T15:03:27;19.00;99.90
23289;DHT22;11813;50.834;4.280;2024-03-07T15:05:56;19.30;99.90
23289;DHT22;11813;50.834;4.280;2024-03-07T15:08:21;19.60;99.90
23289;DHT22;11813;50.834;4.280;2024-03-07T15:10:54;19.60;99.90
23289;DHT22;11813;50.834;4.280;2024-03-07T15:13:21;19.50;99.90
23289;DHT22;11813;50.834;4.280;2024-03-07T15:15:47;19.50;99.90
23289;DHT22;11813;50.834;4.280;2024-03-07T15:18:12;19.20;99.90
23289;DHT22;11813;50.834;4.280;2024-03-07T15:20:38;18.90;99.90
23289;DHT22;11813;50.834;4.280;2024-03-07T15:23:04;18.90;99.90
23289;DHT22;11813;50.834;4.280;2024-03-07T15:25:31;18.90;99.90
23289;DHT22;11813;50.834;4.280;2024-03-07T15:27:57;18.50;99.90
23289;DHT22;11813;50.834;4.280;2024-03-07T15:30:25;18.20;99.90
23289;DHT22;11813;50.834;4.280;2024-03-07T15:32:57;18.20;99.90
23289;DHT22;11813;50.834;4.280;2024-03-07T15:35:25;18.20;99.90
23289;DHT22;11813;50.834;4.280;2024-03-07T15:37:52;18.10;99.90
23289;DHT22;11813;50.834;4.280;2024-03-07T15:40:19;18.10;99.90
23289;DHT22;11813;50.834;4.280;2024-03-07T15:42:47;17.70;99.90
23289;DHT22;11813;50.834;4.280;2024-03-07T15:45:21;17.50;99.90
23289;DHT22;11813;50.834;4.280;2024-03-07T15:47:50;17.10;99.90
23289;DHT22;11813;50.834;4.280;2024-03-07T15:50:16;16.90;99.90
23289;DHT22;11813;50.834;4.280;2024-03-07T15:52:45;16.80;99.90
23289;DHT22;11813;50.834;4.280;2024-03-07T15:55:11;16.60;99.90
23289;DHT22;11813;50.834;4.280;2024-03-07T15:57:49;16.40;99.90
23289;DHT22;11813;50.834;4.280;2024-03-07T16:00:16;16.40;99.90
23289;DHT22;11813;50.834;4.280;2024-03-07T16:03:05;16.20;99.90
23289;DHT22;11813;50.834;4.280;2024-03-07T16:05:34;16.20;99.90
23289;DHT22;11813;50.834;4.280;2024-03-07T16:08:01;16.10;99.90
23289;DHT22;11813;50.834;4.280;2024-03-07T16:10:30;16.10;99.90
23289;DHT22;11813;50.834;4.280;2024-03-07T16:12:57;15.80;99.90
23289;DHT22;11813;50.834;4.280;2024-03-07T16:15:24;15.60;99.90